New Woodstock, New York
Current Conditions -  °F | °C
As of 2:54 AM on Friday 24 Oct 2014 (Local Time) from KSYR Reporting Station
Overcast Overcast  
Wind Chill: 44°   Ceiling: 4100
Heat Index: 48°   Visibility: 10mi
Dew Point: 43°   Wind: 8mph
Humidity: 83%   Direction: 300°WNW
Pressure: 29.94"   Gusts: NA
Location:  42.85°N, 75.85°W
Report Text: KSYR 240654Z 30007KT 10SM FEW019 BKN041 OVC065 09/06 A2994 RMK AO2 SLP135 T00890061
Loading
Personal Weather Stations






























Interactive Weather Map
Tropical Storm Tracking
New forecast layout! Learn more

10-Day Weather Forecast

Advertisements
Track Severe Weather on mobile